createdAt,value
2022-08-31T00:00:19.618Z,101313.48
2022-08-31T00:04:11.839Z,101309.29
2022-08-31T00:07:50.080Z,101315.58
2022-08-31T00:11:28.541Z,101323.80
2022-08-31T00:15:07.639Z,101319.11
2022-08-31T00:18:45.529Z,101312.97
2022-08-31T00:22:22.890Z,101314.98
2022-08-31T00:26:00.743Z,101310.84
2022-08-31T00:29:38.034Z,101313.50
2022-08-31T00:33:15.657Z,101318.48
2022-08-31T00:36:53.473Z,101324.30
2022-08-31T00:40:32.721Z,101320.82
2022-08-31T00:44:15.407Z,101319.14
2022-08-31T00:47:54.241Z,101308.09
2022-08-31T00:51:39.518Z,101294.77
2022-08-31T00:55:37.348Z,101281.54
2022-08-31T00:59:17.215Z,101267.84
2022-08-31T01:02:56.518Z,101274.71
2022-08-31T01:06:34.391Z,101278.84
2022-08-31T01:10:11.727Z,101267.56
2022-08-31T01:13:51.163Z,101258.05
2022-08-31T01:17:29.358Z,101257.98
2022-08-31T01:21:15.657Z,101250.27
2022-08-31T01:24:55.279Z,101267.56
2022-08-31T01:28:33.520Z,101271.32
2022-08-31T01:32:11.114Z,101260.56
2022-08-31T01:35:48.326Z,101251.96
2022-08-31T01:39:25.635Z,101242.55
2022-08-31T01:43:02.986Z,101225.48
2022-08-31T01:46:40.724Z,101209.02
2022-08-31T01:50:19.781Z,101203.61
2022-08-31T01:53:57.099Z,101204.86
2022-08-31T01:57:35.226Z,101218.55
2022-08-31T02:01:32.733Z,101226.66
2022-08-31T02:05:11.457Z,101241.95
2022-08-31T02:08:49.012Z,101243.15
2022-08-31T02:12:26.013Z,101238.72
2022-08-31T02:16:05.874Z,101230.67
2022-08-31T02:19:42.966Z,101234.61
2022-08-31T02:23:20.669Z,101237.50
2022-08-31T02:26:57.813Z,101236.75
2022-08-31T02:30:35.266Z,101225.09
2022-08-31T02:34:12.756Z,101206.50
2022-08-31T02:37:49.661Z,101184.44
2022-08-31T02:41:30.149Z,101171.77
2022-08-31T02:45:06.330Z,101175.46
2022-08-31T02:48:43.906Z,101180.36
2022-08-31T02:52:21.784Z,101185.98
2022-08-31T02:55:59.516Z,101190.47
2022-08-31T02:59:38.295Z,101202.05
2022-08-31T03:03:16.262Z,101202.20
2022-08-31T03:06:53.273Z,101207.98
2022-08-31T03:10:31.659Z,101215.61
2022-08-31T03:14:09.631Z,101236.68
2022-08-31T03:17:47.333Z,101251.30
2022-08-31T03:21:24.366Z,101254.75
2022-08-31T03:25:02.027Z,101267.36
2022-08-31T03:28:39.548Z,101272.33
2022-08-31T03:32:17.932Z,101271.29
2022-08-31T03:35:55.541Z,101270.15
2022-08-31T03:39:32.989Z,101265.48
2022-08-31T03:43:12.010Z,101270.13
2022-08-31T03:46:53.022Z,101271.33
2022-08-31T03:50:30.786Z,101269.14
2022-08-31T03:54:08.000Z,101260.66
2022-08-31T03:57:45.374Z,101245.94
2022-08-31T04:01:23.829Z,101231.73
2022-08-31T04:05:21.141Z,101224.92
2022-08-31T04:08:38.795Z,101229.21
2022-08-31T04:12:18.144Z,101231.54
2022-08-31T04:16:00.604Z,101236.38
2022-08-31T04:19:38.769Z,101235.06
2022-08-31T04:23:15.641Z,101234.16
2022-08-31T04:26:53.213Z,101226.70
2022-08-31T04:30:30.549Z,101226.33
2022-08-31T04:34:08.555Z,101222.16
2022-08-31T04:37:47.077Z,101219.52
2022-08-31T04:41:28.093Z,101213.75
2022-08-31T04:45:06.206Z,101202.98
2022-08-31T04:48:44.188Z,101200.96
2022-08-31T04:52:28.055Z,101208.20
2022-08-31T04:56:07.036Z,101218.73
2022-08-31T04:59:44.802Z,101223.80
2022-08-31T05:03:22.252Z,101231.09
2022-08-31T05:07:00.428Z,101223.33
2022-08-31T05:10:39.622Z,101217.33
2022-08-31T05:14:18.003Z,101214.38
2022-08-31T05:17:55.165Z,101217.44
2022-08-31T05:21:35.785Z,101210.95
2022-08-31T05:25:13.423Z,101208.69
2022-08-31T05:28:51.106Z,101205.95
2022-08-31T05:32:28.568Z,101211.46
2022-08-31T05:36:07.986Z,101223.62
2022-08-31T05:39:48.191Z,101219.16
2022-08-31T05:43:25.973Z,101221.77
2022-08-31T05:47:07.101Z,101218.33
2022-08-31T05:50:44.965Z,101223.14
2022-08-31T05:54:22.117Z,101225.09
2022-08-31T05:58:00.286Z,101219.23
2022-08-31T06:01:41.457Z,101223.00
2022-08-31T06:05:20.376Z,101226.92
2022-08-31T06:08:59.175Z,101225.41
2022-08-31T06:12:37.935Z,101230.37
2022-08-31T06:16:15.908Z,101224.59
2022-08-31T06:19:53.266Z,101225.38
2022-08-31T06:23:30.193Z,101224.58
2022-08-31T06:27:07.101Z,101223.27
2022-08-31T06:30:54.966Z,101220.63
2022-08-31T06:34:32.721Z,101227.14
2022-08-31T06:38:10.572Z,101219.13
2022-08-31T06:41:48.311Z,101205.48
2022-08-31T06:45:25.669Z,101212.49
2022-08-31T06:49:04.884Z,101217.96
2022-08-31T06:52:46.399Z,101216.52
2022-08-31T06:56:26.149Z,101206.57
2022-08-31T07:00:06.088Z,101206.98
2022-08-31T07:03:46.169Z,101205.95
2022-08-31T07:07:23.212Z,101206.88
2022-08-31T07:11:01.185Z,101205.15
2022-08-31T07:14:39.175Z,101210.42
2022-08-31T07:18:16.192Z,101211.06
2022-08-31T07:21:57.423Z,101216.95
2022-08-31T07:25:37.310Z,101220.78
2022-08-31T07:29:18.892Z,101217.05
2022-08-31T07:32:56.814Z,101220.13
2022-08-31T07:36:35.293Z,101220.80
2022-08-31T07:40:12.361Z,101226.58
2022-08-31T07:43:49.914Z,101221.55
2022-08-31T07:47:29.091Z,101222.50
2022-08-31T07:51:06.773Z,101224.00
2022-08-31T07:54:44.512Z,101222.98
2022-08-31T07:58:21.503Z,101230.85
2022-08-31T08:02:01.027Z,101227.53
2022-08-31T08:05:40.736Z,101232.02
2022-08-31T08:09:25.716Z,101230.97
2022-08-31T08:13:05.002Z,101230.00
2022-08-31T08:16:43.294Z,101231.95
2022-08-31T08:20:37.239Z,101230.41
2022-08-31T08:24:16.271Z,101226.97
2022-08-31T08:27:54.959Z,101232.27
2022-08-31T08:31:33.789Z,101230.90
2022-08-31T08:35:12.548Z,101236.02
2022-08-31T08:38:52.533Z,101239.82
2022-08-31T08:42:31.746Z,101238.32
2022-08-31T08:46:31.672Z,101244.88
2022-08-31T08:50:10.101Z,101240.70
2022-08-31T08:53:54.084Z,101237.48
2022-08-31T08:57:39.830Z,101241.48
2022-08-31T09:01:25.166Z,101248.65
2022-08-31T09:05:09.643Z,101255.30
2022-08-31T09:08:50.768Z,101257.00
2022-08-31T09:12:58.716Z,101259.64
2022-08-31T09:17:06.819Z,101256.58
2022-08-31T09:21:04.805Z,101261.91
2022-08-31T09:24:42.655Z,101266.41
2022-08-31T09:28:37.912Z,101263.79
2022-08-31T09:32:22.326Z,101272.80
2022-08-31T09:36:22.582Z,101266.62
2022-08-31T09:40:23.719Z,101273.58
2022-08-31T09:44:26.548Z,101276.77
2022-08-31T09:48:08.303Z,101284.52
2022-08-31T09:51:46.117Z,101293.02
2022-08-31T09:55:27.768Z,101284.59
2022-08-31T09:59:05.866Z,101283.11
2022-08-31T10:02:45.700Z,101287.71
2022-08-31T10:06:39.326Z,101277.89
2022-08-31T10:10:31.696Z,101283.45
2022-08-31T10:14:25.476Z,101288.00
2022-08-31T10:18:15.495Z,101292.21
2022-08-31T10:22:10.775Z,101288.55
2022-08-31T10:25:58.040Z,101290.68
2022-08-31T10:29:44.002Z,101300.27
2022-08-31T10:33:53.434Z,101290.55
2022-08-31T10:37:52.151Z,101279.83
2022-08-31T10:41:35.548Z,101271.48
2022-08-31T10:45:18.669Z,101263.91
2022-08-31T10:48:58.358Z,101260.63
2022-08-31T10:52:51.953Z,101263.27
2022-08-31T10:56:43.606Z,101255.58
2022-08-31T11:00:25.690Z,101243.61
2022-08-31T11:04:09.743Z,101240.31
2022-08-31T11:07:57.923Z,101239.01
2022-08-31T11:11:48.772Z,101230.23
2022-08-31T11:15:41.754Z,101223.36
2022-08-31T11:19:32.428Z,101233.71
2022-08-31T11:23:23.082Z,101228.14
2022-08-31T11:27:09.186Z,101225.21
2022-08-31T11:30:51.090Z,101218.26
2022-08-31T11:34:40.123Z,101223.69
2022-08-31T11:38:48.278Z,101220.94
2022-08-31T11:42:29.247Z,101212.72
2022-08-31T11:46:22.474Z,101206.46
2022-08-31T11:50:51.791Z,101203.73
2022-08-31T11:54:31.794Z,101206.02
2022-08-31T11:58:18.487Z,101202.38
2022-08-31T12:02:20.019Z,101195.19
2022-08-31T12:05:57.703Z,101190.95
2022-08-31T12:09:57.678Z,101189.19
2022-08-31T12:13:55.496Z,101187.45
2022-08-31T12:17:50.875Z,101180.33
2022-08-31T12:21:52.296Z,101180.48
2022-08-31T12:25:54.666Z,101175.38
2022-08-31T12:29:36.118Z,101169.91
2022-08-31T12:33:18.044Z,101169.12
2022-08-31T12:36:57.023Z,101163.56
2022-08-31T12:40:51.750Z,101156.80
2022-08-31T12:44:34.409Z,101146.69
2022-08-31T12:48:20.854Z,101145.84
2022-08-31T12:52:23.256Z,101140.31
2022-08-31T12:56:24.911Z,101134.79
2022-08-31T13:00:21.864Z,101133.72
2022-08-31T13:04:03.422Z,101119.84
2022-08-31T13:07:41.111Z,101119.64
2022-08-31T13:11:24.224Z,101122.63
2022-08-31T13:15:04.656Z,101109.51
2022-08-31T13:18:41.943Z,101108.73
2022-08-31T13:22:33.609Z,101112.69
2022-08-31T13:26:24.640Z,101103.66
2022-08-31T13:30:16.052Z,101101.97
2022-08-31T13:33:54.630Z,101098.27
2022-08-31T13:37:38.518Z,101097.17
2022-08-31T13:41:25.781Z,101094.01
2022-08-31T13:45:06.692Z,101086.64
2022-08-31T13:48:51.661Z,101072.35
2022-08-31T13:52:31.902Z,101074.55
2022-08-31T13:56:31.775Z,101065.42
2022-08-31T14:00:32.161Z,101066.23
2022-08-31T14:04:48.314Z,101064.04
2022-08-31T14:08:28.084Z,101055.52
2022-08-31T14:12:07.000Z,101055.75
2022-08-31T14:16:00.855Z,101046.10
2022-08-31T14:19:38.700Z,101042.87
2022-08-31T14:23:25.890Z,101038.92
2022-08-31T14:27:03.486Z,101026.39
2022-08-31T14:30:41.777Z,101019.96
2022-08-31T14:34:22.487Z,101012.34
2022-08-31T14:38:00.492Z,101025.52
2022-08-31T14:41:38.871Z,101018.64
2022-08-31T14:45:18.597Z,101012.16
2022-08-31T14:48:57.166Z,101001.55
2022-08-31T14:52:37.706Z,101004.80
2022-08-31T14:56:15.943Z,101018.39
2022-08-31T14:59:58.153Z,101010.55
2022-08-31T15:03:35.717Z,100999.94
2022-08-31T15:07:14.998Z,100991.98
2022-08-31T15:10:53.704Z,100994.34
2022-08-31T15:14:31.184Z,100985.45
2022-08-31T15:18:08.898Z,100978.24
2022-08-31T15:21:52.275Z,100956.70
2022-08-31T15:25:30.953Z,100955.23
2022-08-31T15:29:08.009Z,100960.92
2022-08-31T15:32:48.982Z,100964.36
2022-08-31T15:36:28.320Z,100980.88
2022-08-31T15:40:07.521Z,100980.98
2022-08-31T15:43:45.629Z,100974.44
2022-08-31T15:47:26.818Z,100972.67
2022-08-31T15:51:03.965Z,100969.41
2022-08-31T15:54:42.620Z,100961.73
2022-08-31T15:58:24.638Z,100957.99
2022-08-31T16:02:05.948Z,100955.83
2022-08-31T16:05:44.021Z,100954.91
2022-08-31T16:09:23.227Z,100962.23
2022-08-31T16:13:00.695Z,100958.83
2022-08-31T16:16:41.639Z,100960.06
2022-08-31T16:20:20.057Z,100966.52
2022-08-31T16:24:00.044Z,100967.67
2022-08-31T16:27:37.464Z,100962.14
2022-08-31T16:31:14.436Z,100967.52
2022-08-31T16:34:52.220Z,100966.85
2022-08-31T16:38:29.534Z,100966.88
2022-08-31T16:42:09.086Z,100960.53
2022-08-31T16:45:46.882Z,100963.88
2022-08-31T16:49:24.069Z,100966.13
2022-08-31T16:53:01.752Z,100958.52
2022-08-31T16:56:42.588Z,100943.58
2022-08-31T17:00:31.468Z,100943.77
2022-08-31T17:04:34.798Z,100939.79
2022-08-31T17:08:15.888Z,100944.52
2022-08-31T17:12:00.449Z,100946.56
2022-08-31T17:15:37.811Z,100944.69
2022-08-31T17:19:18.275Z,100941.61
2022-08-31T17:22:55.873Z,100936.93
2022-08-31T17:26:34.332Z,100930.23
2022-08-31T17:30:12.114Z,100930.25
2022-08-31T17:33:50.550Z,100932.50
2022-08-31T17:37:30.815Z,100925.66
2022-08-31T17:41:09.962Z,100923.95
2022-08-31T17:44:49.331Z,100920.66
2022-08-31T17:48:27.377Z,100915.95
2022-08-31T17:52:07.020Z,100913.64
2022-08-31T17:55:53.478Z,100912.16
2022-08-31T17:59:34.146Z,100910.71
2022-08-31T18:03:11.665Z,100908.64
2022-08-31T18:06:50.413Z,100909.29
2022-08-31T18:10:28.354Z,100906.59
2022-08-31T18:14:06.714Z,100911.34
2022-08-31T18:17:44.804Z,100906.88
2022-08-31T18:21:24.357Z,100908.86
2022-08-31T18:25:02.392Z,100905.14
2022-08-31T18:28:40.146Z,100905.27
2022-08-31T18:32:17.607Z,100910.80
2022-08-31T18:35:54.652Z,100912.83
2022-08-31T18:39:51.952Z,100912.09
2022-08-31T18:43:29.503Z,100917.23
2022-08-31T18:47:10.499Z,100919.48
2022-08-31T18:50:49.905Z,100915.94
2022-08-31T18:54:27.119Z,100923.80
2022-08-31T18:58:05.808Z,100926.20
2022-08-31T19:01:45.375Z,100928.35
2022-08-31T19:05:23.380Z,100925.95
2022-08-31T19:09:01.038Z,100930.10
2022-08-31T19:12:39.417Z,100929.29
2022-08-31T19:16:24.175Z,100939.61
2022-08-31T19:20:03.724Z,100940.42
2022-08-31T19:23:41.922Z,100938.20
2022-08-31T19:27:19.686Z,100941.44
2022-08-31T19:30:56.940Z,100947.85
2022-08-31T19:34:38.954Z,100952.44
2022-08-31T19:38:16.255Z,100953.04
2022-08-31T19:42:01.496Z,100960.69
2022-08-31T19:45:43.733Z,100958.59
2022-08-31T19:49:24.146Z,100959.15
2022-08-31T19:53:02.972Z,100957.92
2022-08-31T19:56:41.843Z,100961.45
2022-08-31T20:00:20.092Z,100968.27
2022-08-31T20:03:57.903Z,100971.72
2022-08-31T20:07:35.823Z,100974.98
2022-08-31T20:11:21.272Z,100978.59
2022-08-31T20:14:59.180Z,100979.14
2022-08-31T20:18:37.051Z,100977.35
2022-08-31T20:22:14.914Z,100984.13
2022-08-31T20:25:53.159Z,100989.30
2022-08-31T20:29:33.359Z,100991.88
2022-08-31T20:33:12.224Z,100992.84
2022-08-31T20:36:52.116Z,100988.41
2022-08-31T20:40:30.070Z,100996.30
2022-08-31T20:44:12.160Z,100991.34
2022-08-31T20:47:49.657Z,100985.88
2022-08-31T20:51:27.778Z,100983.93
2022-08-31T20:55:07.552Z,100982.30
2022-08-31T20:58:46.443Z,100981.60
2022-08-31T21:02:24.717Z,100983.14
2022-08-31T21:06:08.808Z,100978.87
2022-08-31T21:09:47.350Z,100975.74
2022-08-31T21:13:25.279Z,100977.13
2022-08-31T21:17:05.810Z,100982.86
2022-08-31T21:20:44.816Z,100986.20
2022-08-31T21:24:22.911Z,100988.55
2022-08-31T21:28:00.981Z,100983.47
2022-08-31T21:31:43.704Z,100984.29
2022-08-31T21:35:27.159Z,100983.09
2022-08-31T21:39:09.012Z,100979.45
2022-08-31T21:42:49.445Z,100981.80
2022-08-31T21:46:26.571Z,100980.41
2022-08-31T21:50:05.377Z,100980.56
2022-08-31T21:53:45.902Z,100979.85
2022-08-31T21:57:23.567Z,100984.95
2022-08-31T22:01:02.771Z,100985.13
2022-08-31T22:04:43.720Z,100983.34
2022-08-31T22:08:22.138Z,100979.00
2022-08-31T22:12:00.000Z,100972.39
2022-08-31T22:15:38.179Z,100977.17
2022-08-31T22:19:19.233Z,100977.16
2022-08-31T22:22:56.572Z,100976.36
2022-08-31T22:26:38.336Z,100978.06
2022-08-31T22:30:17.386Z,100979.38
2022-08-31T22:33:54.727Z,100981.08
2022-08-31T22:37:32.898Z,100981.73
2022-08-31T22:41:12.195Z,100979.48
2022-08-31T22:44:50.577Z,100978.30
2022-08-31T22:48:28.245Z,100978.95
2022-08-31T22:52:05.591Z,100971.64
2022-08-31T22:55:43.141Z,100968.11
2022-08-31T22:59:24.515Z,100968.86
2022-08-31T23:03:01.754Z,100965.66
2022-08-31T23:06:40.046Z,100969.30
2022-08-31T23:10:19.847Z,100972.79
2022-08-31T23:13:58.635Z,100973.79
2022-08-31T23:17:36.701Z,100972.67
2022-08-31T23:21:14.674Z,100970.52
2022-08-31T23:24:52.639Z,100967.80
2022-08-31T23:28:29.894Z,100966.14
2022-08-31T23:32:09.408Z,100965.10
2022-08-31T23:35:47.264Z,100958.52
2022-08-31T23:39:25.490Z,100959.91
2022-08-31T23:43:03.351Z,100959.60
2022-08-31T23:46:43.051Z,100962.81
2022-08-31T23:50:20.778Z,100950.26
2022-08-31T23:53:57.964Z,100946.09
2022-08-31T23:57:37.063Z,100942.16
